sensor_id;sensor_type;location;lat;lon;timestamp;P1;durP1;ratioP1;P2;durP2;ratioP2
21868;SDS011;11099;41.564;23.296;2023-05-10T00:00:36;8.43;;;7.50;;
21868;SDS011;11099;41.564;23.296;2023-05-10T00:03:01;7.20;;;5.75;;
21868;SDS011;11099;41.564;23.296;2023-05-10T00:05:30;6.95;;;6.07;;
21868;SDS011;11099;41.564;23.296;2023-05-10T00:07:56;8.13;;;7.30;;
21868;SDS011;11099;41.564;23.296;2023-05-10T00:10:21;10.70;;;7.20;;
21868;SDS011;11099;41.564;23.296;2023-05-10T00:12:47;7.43;;;6.70;;
21868;SDS011;11099;41.564;23.296;2023-05-10T00:15:12;7.78;;;6.90;;
21868;SDS011;11099;41.564;23.296;2023-05-10T00:17:38;8.73;;;7.50;;
21868;SDS011;11099;41.564;23.296;2023-05-10T00:20:04;9.18;;;8.23;;
21868;SDS011;11099;41.564;23.296;2023-05-10T00:22:30;8.25;;;7.45;;
21868;SDS011;11099;41.564;23.296;2023-05-10T00:24:56;8.75;;;7.78;;
21868;SDS011;11099;41.564;23.296;2023-05-10T00:27:22;8.30;;;7.55;;
21868;SDS011;11099;41.564;23.296;2023-05-10T00:29:48;9.07;;;7.80;;
21868;SDS011;11099;41.564;23.296;2023-05-10T00:32:14;10.25;;;8.50;;
21868;SDS011;11099;41.564;23.296;2023-05-10T00:34:39;8.15;;;7.35;;
21868;SDS011;11099;41.564;23.296;2023-05-10T00:37:05;8.30;;;7.32;;
21868;SDS011;11099;41.564;23.296;2023-05-10T00:39:31;8.50;;;7.55;;
21868;SDS011;11099;41.564;23.296;2023-05-10T00:41:56;13.40;;;7.95;;
21868;SDS011;11099;41.564;23.296;2023-05-10T00:44:21;8.57;;;7.70;;
21868;SDS011;11099;41.564;23.296;2023-05-10T00:46:47;9.30;;;8.32;;
21868;SDS011;11099;41.564;23.296;2023-05-10T00:49:14;9.55;;;8.13;;
21868;SDS011;11099;41.564;23.296;2023-05-10T00:51:40;11.07;;;7.50;;
21868;SDS011;11099;41.564;23.296;2023-05-10T00:54:07;8.40;;;7.60;;
21868;SDS011;11099;41.564;23.296;2023-05-10T00:56:34;9.90;;;8.20;;
21868;SDS011;11099;41.564;23.296;2023-05-10T00:59:01;9.50;;;7.75;;
21868;SDS011;11099;41.564;23.296;2023-05-10T01:01:27;9.10;;;8.18;;
21868;SDS011;11099;41.564;23.296;2023-05-10T01:03:54;8.68;;;7.30;;
21868;SDS011;11099;41.564;23.296;2023-05-10T01:06:20;10.75;;;8.27;;
21868;SDS011;11099;41.564;23.296;2023-05-10T01:08:46;9.55;;;7.78;;
21868;SDS011;11099;41.564;23.296;2023-05-10T01:11:12;9.50;;;7.95;;
21868;SDS011;11099;41.564;23.296;2023-05-10T01:13:39;6.75;;;6.07;;
21868;SDS011;11099;41.564;23.296;2023-05-10T01:18:34;9.82;;;8.13;;
21868;SDS011;11099;41.564;23.296;2023-05-10T01:43:28;11.10;;;7.93;;
21868;SDS011;11099;41.564;23.296;2023-05-10T01:46:07;9.27;;;7.97;;
21868;SDS011;11099;41.564;23.296;2023-05-10T01:48:51;10.65;;;8.50;;
21868;SDS011;11099;41.564;23.296;2023-05-10T01:51:21;9.15;;;8.25;;
21868;SDS011;11099;41.564;23.296;2023-05-10T01:53:50;9.18;;;8.13;;
21868;SDS011;11099;41.564;23.296;2023-05-10T01:56:20;10.00;;;8.15;;
21868;SDS011;11099;41.564;23.296;2023-05-10T01:58:49;8.27;;;7.35;;
21868;SDS011;11099;41.564;23.296;2023-05-10T02:01:16;9.50;;;8.10;;
21868;SDS011;11099;41.564;23.296;2023-05-10T02:03:45;11.15;;;9.43;;
21868;SDS011;11099;41.564;23.296;2023-05-10T02:06:12;10.60;;;8.40;;
21868;SDS011;11099;41.564;23.296;2023-05-10T02:08:40;9.35;;;8.55;;
21868;SDS011;11099;41.564;23.296;2023-05-10T02:11:08;9.00;;;8.07;;
21868;SDS011;11099;41.564;23.296;2023-05-10T02:13:37;9.35;;;8.45;;
21868;SDS011;11099;41.564;23.296;2023-05-10T02:16:04;9.95;;;8.90;;
21868;SDS011;11099;41.564;23.296;2023-05-10T02:18:30;9.15;;;8.13;;
21868;SDS011;11099;41.564;23.296;2023-05-10T02:20:57;12.25;;;7.97;;
21868;SDS011;11099;41.564;23.296;2023-05-10T02:23:23;10.18;;;8.95;;
21868;SDS011;11099;41.564;23.296;2023-05-10T02:25:51;9.35;;;8.45;;
21868;SDS011;11099;41.564;23.296;2023-05-10T02:28:18;8.93;;;7.90;;
21868;SDS011;11099;41.564;23.296;2023-05-10T02:30:46;8.55;;;7.75;;
21868;SDS011;11099;41.564;23.296;2023-05-10T02:33:12;9.52;;;8.38;;
21868;SDS011;11099;41.564;23.296;2023-05-10T02:35:39;9.07;;;8.20;;
21868;SDS011;11099;41.564;23.296;2023-05-10T02:38:06;8.48;;;7.57;;
21868;SDS011;11099;41.564;23.296;2023-05-10T02:40:32;9.07;;;8.18;;
21868;SDS011;11099;41.564;23.296;2023-05-10T02:42:59;8.32;;;7.32;;
21868;SDS011;11099;41.564;23.296;2023-05-10T02:45:27;8.23;;;7.53;;
21868;SDS011;11099;41.564;23.296;2023-05-10T02:47:55;8.68;;;7.88;;
21868;SDS011;11099;41.564;23.296;2023-05-10T02:50:21;8.75;;;7.95;;
21868;SDS011;11099;41.564;23.296;2023-05-10T02:52:52;14.70;;;12.80;;
21868;SDS011;11099;41.564;23.296;2023-05-10T02:55:25;10.70;;;9.60;;
21868;SDS011;11099;41.564;23.296;2023-05-10T02:57:58;10.30;;;8.77;;
21868;SDS011;11099;41.564;23.296;2023-05-10T03:00:27;9.73;;;8.77;;
21868;SDS011;11099;41.564;23.296;2023-05-10T03:02:52;8.57;;;7.72;;
21868;SDS011;11099;41.564;23.296;2023-05-10T03:05:18;8.68;;;7.93;;
21868;SDS011;11099;41.564;23.296;2023-05-10T03:07:44;8.85;;;7.85;;
21868;SDS011;11099;41.564;23.296;2023-05-10T03:10:11;7.78;;;7.07;;
21868;SDS011;11099;41.564;23.296;2023-05-10T03:15:13;9.15;;;7.45;;
21868;SDS011;11099;41.564;23.296;2023-05-10T03:17:51;7.13;;;6.53;;
21868;SDS011;11099;41.564;23.296;2023-05-10T03:20:33;7.30;;;6.60;;
21868;SDS011;11099;41.564;23.296;2023-05-10T03:25:42;7.03;;;6.32;;
21868;SDS011;11099;41.564;23.296;2023-05-10T03:28:09;7.60;;;6.93;;
21868;SDS011;11099;41.564;23.296;2023-05-10T03:30:34;7.28;;;6.68;;
21868;SDS011;11099;41.564;23.296;2023-05-10T03:33:07;6.97;;;6.38;;
21868;SDS011;11099;41.564;23.296;2023-05-10T03:35:33;6.20;;;5.63;;
21868;SDS011;11099;41.564;23.296;2023-05-10T03:37:58;7.18;;;6.57;;
21868;SDS011;11099;41.564;23.296;2023-05-10T03:40:24;7.43;;;6.72;;
21868;SDS011;11099;41.564;23.296;2023-05-10T03:42:53;7.97;;;7.28;;
21868;SDS011;11099;41.564;23.296;2023-05-10T03:45:19;7.72;;;6.95;;
21868;SDS011;11099;41.564;23.296;2023-05-10T03:47:45;7.95;;;7.25;;
21868;SDS011;11099;41.564;23.296;2023-05-10T03:50:10;7.53;;;6.82;;
21868;SDS011;11099;41.564;23.296;2023-05-10T03:52:36;7.85;;;7.15;;
21868;SDS011;11099;41.564;23.296;2023-05-10T03:55:04;10.40;;;7.53;;
21868;SDS011;11099;41.564;23.296;2023-05-10T03:57:30;7.53;;;6.82;;
21868;SDS011;11099;41.564;23.296;2023-05-10T03:59:56;7.70;;;6.57;;
21868;SDS011;11099;41.564;23.296;2023-05-10T04:02:21;8.02;;;7.32;;
21868;SDS011;11099;41.564;23.296;2023-05-10T04:04:47;7.57;;;6.88;;
21868;SDS011;11099;41.564;23.296;2023-05-10T04:07:13;8.75;;;6.28;;
21868;SDS011;11099;41.564;23.296;2023-05-10T04:09:38;8.52;;;6.78;;
21868;SDS011;11099;41.564;23.296;2023-05-10T04:12:04;7.97;;;7.28;;
21868;SDS011;11099;41.564;23.296;2023-05-10T04:14:30;7.50;;;6.78;;
21868;SDS011;11099;41.564;23.296;2023-05-10T04:16:56;7.88;;;7.18;;
21868;SDS011;11099;41.564;23.296;2023-05-10T04:19:21;10.40;;;8.27;;
21868;SDS011;11099;41.564;23.296;2023-05-10T04:21:47;7.72;;;6.90;;
21868;SDS011;11099;41.564;23.296;2023-05-10T04:24:13;8.05;;;7.35;;
21868;SDS011;11099;41.564;23.296;2023-05-10T04:26:38;11.45;;;8.80;;
21868;SDS011;11099;41.564;23.296;2023-05-10T04:29:04;8.30;;;7.50;;
21868;SDS011;11099;41.564;23.296;2023-05-10T04:31:29;10.57;;;9.00;;
21868;SDS011;11099;41.564;23.296;2023-05-10T04:33:55;9.85;;;8.95;;
21868;SDS011;11099;41.564;23.296;2023-05-10T04:36:20;12.10;;;9.50;;
21868;SDS011;11099;41.564;23.296;2023-05-10T04:38:46;10.13;;;9.23;;
21868;SDS011;11099;41.564;23.296;2023-05-10T04:41:11;10.80;;;9.52;;
21868;SDS011;11099;41.564;23.296;2023-05-10T04:43:37;10.73;;;9.68;;
21868;SDS011;11099;41.564;23.296;2023-05-10T04:46:03;9.48;;;8.45;;
21868;SDS011;11099;41.564;23.296;2023-05-10T04:48:29;9.88;;;8.48;;
21868;SDS011;11099;41.564;23.296;2023-05-10T04:50:55;10.73;;;8.93;;
21868;SDS011;11099;41.564;23.296;2023-05-10T04:53:21;8.73;;;7.95;;
21868;SDS011;11099;41.564;23.296;2023-05-10T04:55:47;9.07;;;8.27;;
21868;SDS011;11099;41.564;23.296;2023-05-10T04:58:13;9.57;;;8.63;;
21868;SDS011;11099;41.564;23.296;2023-05-10T05:00:38;12.95;;;9.70;;
21868;SDS011;11099;41.564;23.296;2023-05-10T05:03:04;10.13;;;9.23;;
21868;SDS011;11099;41.564;23.296;2023-05-10T05:05:30;9.60;;;8.80;;
21868;SDS011;11099;41.564;23.296;2023-05-10T05:07:55;11.20;;;9.75;;
21868;SDS011;11099;41.564;23.296;2023-05-10T05:10:21;13.10;;;11.80;;
21868;SDS011;11099;41.564;23.296;2023-05-10T05:12:46;10.80;;;9.70;;
21868;SDS011;11099;41.564;23.296;2023-05-10T05:15:12;12.70;;;11.07;;
21868;SDS011;11099;41.564;23.296;2023-05-10T05:17:37;10.48;;;9.52;;
21868;SDS011;11099;41.564;23.296;2023-05-10T05:20:03;10.30;;;9.23;;
21868;SDS011;11099;41.564;23.296;2023-05-10T05:22:29;11.23;;;8.45;;
21868;SDS011;11099;41.564;23.296;2023-05-10T05:24:55;8.25;;;7.30;;
21868;SDS011;11099;41.564;23.296;2023-05-10T05:27:20;8.38;;;7.55;;
21868;SDS011;11099;41.564;23.296;2023-05-10T05:29:49;8.90;;;8.07;;
21868;SDS011;11099;41.564;23.296;2023-05-10T05:32:16;7.88;;;7.15;;
21868;SDS011;11099;41.564;23.296;2023-05-10T05:34:41;9.50;;;8.50;;
21868;SDS011;11099;41.564;23.296;2023-05-10T05:37:12;11.07;;;8.65;;
21868;SDS011;11099;41.564;23.296;2023-05-10T05:39:41;7.38;;;6.72;;
21868;SDS011;11099;41.564;23.296;2023-05-10T05:42:07;9.90;;;9.00;;
21868;SDS011;11099;41.564;23.296;2023-05-10T05:44:34;10.30;;;8.35;;
21868;SDS011;11099;41.564;23.296;2023-05-10T05:46:59;9.43;;;8.52;;
21868;SDS011;11099;41.564;23.296;2023-05-10T05:49:25;7.88;;;7.15;;
21868;SDS011;11099;41.564;23.296;2023-05-10T05:51:50;8.48;;;7.68;;
21868;SDS011;11099;41.564;23.296;2023-05-10T05:54:15;10.65;;;8.43;;
21868;SDS011;11099;41.564;23.296;2023-05-10T05:56:41;8.07;;;7.28;;
21868;SDS011;11099;41.564;23.296;2023-05-10T05:59:07;8.95;;;7.80;;
21868;SDS011;11099;41.564;23.296;2023-05-10T06:01:33;8.07;;;7.38;;
21868;SDS011;11099;41.564;23.296;2023-05-10T06:03:58;8.75;;;7.15;;
21868;SDS011;11099;41.564;23.296;2023-05-10T06:06:23;7.55;;;6.82;;
21868;SDS011;11099;41.564;23.296;2023-05-10T06:08:49;7.65;;;6.95;;
21868;SDS011;11099;41.564;23.296;2023-05-10T06:11:14;9.75;;;6.95;;
21868;SDS011;11099;41.564;23.296;2023-05-10T06:13:40;7.35;;;6.65;;
21868;SDS011;11099;41.564;23.296;2023-05-10T06:16:07;7.90;;;7.25;;
21868;SDS011;11099;41.564;23.296;2023-05-10T06:18:32;7.82;;;7.13;;
21868;SDS011;11099;41.564;23.296;2023-05-10T06:20:58;16.05;;;14.35;;
21868;SDS011;11099;41.564;23.296;2023-05-10T06:23:24;8.27;;;7.47;;
21868;SDS011;11099;41.564;23.296;2023-05-10T06:25:50;7.80;;;7.10;;
21868;SDS011;11099;41.564;23.296;2023-05-10T06:28:16;7.97;;;6.57;;
21868;SDS011;11099;41.564;23.296;2023-05-10T06:30:47;7.63;;;6.93;;
21868;SDS011;11099;41.564;23.296;2023-05-10T06:33:13;9.10;;;8.25;;
21868;SDS011;11099;41.564;23.296;2023-05-10T06:35:38;12.27;;;8.32;;
21868;SDS011;11099;41.564;23.296;2023-05-10T06:38:04;10.00;;;8.93;;
21868;SDS011;11099;41.564;23.296;2023-05-10T06:40:29;9.85;;;8.32;;
21868;SDS011;11099;41.564;23.296;2023-05-10T06:42:55;7.25;;;6.65;;
21868;SDS011;11099;41.564;23.296;2023-05-10T06:45:20;9.63;;;7.85;;
21868;SDS011;11099;41.564;23.296;2023-05-10T06:47:46;8.05;;;7.25;;
21868;SDS011;11099;41.564;23.296;2023-05-10T06:50:11;8.18;;;6.55;;
21868;SDS011;11099;41.564;23.296;2023-05-10T06:52:37;8.65;;;7.82;;
21868;SDS011;11099;41.564;23.296;2023-05-10T06:55:03;7.32;;;6.63;;
21868;SDS011;11099;41.564;23.296;2023-05-10T06:57:29;8.60;;;7.53;;
21868;SDS011;11099;41.564;23.296;2023-05-10T06:59:55;9.13;;;7.68;;
21868;SDS011;11099;41.564;23.296;2023-05-10T07:02:21;8.75;;;7.35;;
21868;SDS011;11099;41.564;23.296;2023-05-10T07:04:48;12.90;;;7.10;;
21868;SDS011;11099;41.564;23.296;2023-05-10T07:07:13;9.63;;;7.15;;
21868;SDS011;11099;41.564;23.296;2023-05-10T07:09:39;8.45;;;7.10;;
21868;SDS011;11099;41.564;23.296;2023-05-10T07:12:05;8.90;;;7.85;;
21868;SDS011;11099;41.564;23.296;2023-05-10T07:14:30;7.90;;;7.13;;
21868;SDS011;11099;41.564;23.296;2023-05-10T07:16:56;6.88;;;6.22;;
21868;SDS011;11099;41.564;23.296;2023-05-10T07:19:21;7.85;;;7.05;;
21868;SDS011;11099;41.564;23.296;2023-05-10T07:21:47;6.70;;;5.95;;
21868;SDS011;11099;41.564;23.296;2023-05-10T07:24:12;15.60;;;13.52;;
21868;SDS011;11099;41.564;23.296;2023-05-10T07:26:38;9.63;;;8.63;;
21868;SDS011;11099;41.564;23.296;2023-05-10T07:29:03;8.70;;;7.90;;
21868;SDS011;11099;41.564;23.296;2023-05-10T07:31:29;9.88;;;8.68;;
21868;SDS011;11099;41.564;23.296;2023-05-10T07:33:54;6.68;;;6.07;;
21868;SDS011;11099;41.564;23.296;2023-05-10T07:36:20;11.38;;;8.98;;
21868;SDS011;11099;41.564;23.296;2023-05-10T07:38:45;13.05;;;9.48;;
21868;SDS011;11099;41.564;23.296;2023-05-10T07:41:11;8.65;;;7.85;;
21868;SDS011;11099;41.564;23.296;2023-05-10T07:43:37;5.70;;;5.20;;
21868;SDS011;11099;41.564;23.296;2023-05-10T07:46:02;6.30;;;5.55;;
21868;SDS011;11099;41.564;23.296;2023-05-10T07:48:28;8.13;;;5.63;;
21868;SDS011;11099;41.564;23.296;2023-05-10T07:50:53;9.43;;;8.23;;
21868;SDS011;11099;41.564;23.296;2023-05-10T07:53:19;6.75;;;6.15;;
21868;SDS011;11099;41.564;23.296;2023-05-10T07:55:49;8.55;;;7.60;;
21868;SDS011;11099;41.564;23.296;2023-05-10T07:58:15;8.63;;;7.78;;
21868;SDS011;11099;41.564;23.296;2023-05-10T08:00:41;9.93;;;8.93;;
21868;SDS011;11099;41.564;23.296;2023-05-10T08:03:06;10.52;;;9.52;;
21868;SDS011;11099;41.564;23.296;2023-05-10T08:05:31;7.90;;;7.18;;
21868;SDS011;11099;41.564;23.296;2023-05-10T08:07:57;7.53;;;6.82;;
21868;SDS011;11099;41.564;23.296;2023-05-10T08:10:23;9.15;;;8.20;;
21868;SDS011;11099;41.564;23.296;2023-05-10T08:12:49;10.00;;;8.52;;
21868;SDS011;11099;41.564;23.296;2023-05-10T08:15:15;8.05;;;7.25;;
21868;SDS011;11099;41.564;23.296;2023-05-10T08:17:40;10.00;;;8.60;;
21868;SDS011;11099;41.564;23.296;2023-05-10T08:20:06;8.43;;;7.25;;
21868;SDS011;11099;41.564;23.296;2023-05-10T08:22:32;9.88;;;8.85;;
21868;SDS011;11099;41.564;23.296;2023-05-10T08:24:58;8.88;;;7.97;;
21868;SDS011;11099;41.564;23.296;2023-05-10T08:27:23;12.02;;;6.00;;
21868;SDS011;11099;41.564;23.296;2023-05-10T08:29:49;8.32;;;7.45;;
21868;SDS011;11099;41.564;23.296;2023-05-10T08:32:14;7.40;;;6.80;;
21868;SDS011;11099;41.564;23.296;2023-05-10T08:34:40;7.10;;;6.40;;
21868;SDS011;11099;41.564;23.296;2023-05-10T08:37:06;5.82;;;5.20;;
21868;SDS011;11099;41.564;23.296;2023-05-10T08:39:35;5.38;;;4.90;;
21868;SDS011;11099;41.564;23.296;2023-05-10T08:42:01;5.55;;;5.15;;
21868;SDS011;11099;41.564;23.296;2023-05-10T08:44:30;6.37;;;5.77;;
21868;SDS011;11099;41.564;23.296;2023-05-10T08:46:57;6.57;;;5.80;;
21868;SDS011;11099;41.564;23.296;2023-05-10T08:49:26;6.85;;;5.57;;
21868;SDS011;11099;41.564;23.296;2023-05-10T08:51:54;7.07;;;6.40;;
21868;SDS011;11099;41.564;23.296;2023-05-10T08:54:24;6.75;;;6.05;;
21868;SDS011;11099;41.564;23.296;2023-05-10T08:56:52;9.17;;;8.33;;
21868;SDS011;11099;41.564;23.296;2023-05-10T08:59:19;9.00;;;7.82;;
21868;SDS011;11099;41.564;23.296;2023-05-10T09:01:45;8.10;;;7.38;;
21868;SDS011;11099;41.564;23.296;2023-05-10T09:04:13;6.53;;;6.03;;
21868;SDS011;11099;41.564;23.296;2023-05-10T09:06:38;10.25;;;9.35;;
21868;SDS011;11099;41.564;23.296;2023-05-10T09:09:04;6.80;;;6.30;;
21868;SDS011;11099;41.564;23.296;2023-05-10T09:11:30;7.05;;;6.47;;
21868;SDS011;11099;41.564;23.296;2023-05-10T09:13:57;4.95;;;4.20;;
21868;SDS011;11099;41.564;23.296;2023-05-10T09:16:23;5.45;;;5.03;;
21868;SDS011;11099;41.564;23.296;2023-05-10T09:18:48;5.57;;;5.18;;
21868;SDS011;11099;41.564;23.296;2023-05-10T09:21:14;5.35;;;4.95;;
21868;SDS011;11099;41.564;23.296;2023-05-10T09:23:44;5.57;;;5.07;;
21868;SDS011;11099;41.564;23.296;2023-05-10T09:26:10;5.30;;;4.80;;
21868;SDS011;11099;41.564;23.296;2023-05-10T09:28:55;8.07;;;7.38;;
21868;SDS011;11099;41.564;23.296;2023-05-10T09:31:23;4.70;;;4.30;;
21868;SDS011;11099;41.564;23.296;2023-05-10T09:34:08;5.55;;;5.03;;
21868;SDS011;11099;41.564;23.296;2023-05-10T09:36:35;5.65;;;4.50;;
21868;SDS011;11099;41.564;23.296;2023-05-10T09:39:00;6.47;;;5.97;;
21868;SDS011;11099;41.564;23.296;2023-05-10T09:41:27;6.47;;;5.93;;
21868;SDS011;11099;41.564;23.296;2023-05-10T09:43:55;5.60;;;5.10;;
21868;SDS011;11099;41.564;23.296;2023-05-10T09:46:21;5.78;;;5.38;;
21868;SDS011;11099;41.564;23.296;2023-05-10T09:48:50;3.70;;;3.40;;
21868;SDS011;11099;41.564;23.296;2023-05-10T09:51:23;5.63;;;3.60;;
21868;SDS011;11099;41.564;23.296;2023-05-10T09:56:41;5.35;;;4.95;;
21868;SDS011;11099;41.564;23.296;2023-05-10T09:59:09;3.80;;;3.53;;
21868;SDS011;11099;41.564;23.296;2023-05-10T10:01:36;3.47;;;3.17;;
21868;SDS011;11099;41.564;23.296;2023-05-10T10:04:03;4.38;;;4.00;;
21868;SDS011;11099;41.564;23.296;2023-05-10T10:06:38;4.15;;;3.85;;
21868;SDS011;11099;41.564;23.296;2023-05-10T10:09:05;3.50;;;3.20;;
21868;SDS011;11099;41.564;23.296;2023-05-10T10:11:31;3.47;;;3.20;;
21868;SDS011;11099;41.564;23.296;2023-05-10T10:13:58;4.38;;;3.97;;
21868;SDS011;11099;41.564;23.296;2023-05-10T10:16:25;3.90;;;3.55;;
21868;SDS011;11099;41.564;23.296;2023-05-10T10:18:52;5.20;;;4.75;;
21868;SDS011;11099;41.564;23.296;2023-05-10T10:21:18;5.70;;;5.20;;
21868;SDS011;11099;41.564;23.296;2023-05-10T10:23:44;4.93;;;4.63;;
21868;SDS011;11099;41.564;23.296;2023-05-10T10:26:10;4.57;;;4.18;;
21868;SDS011;11099;41.564;23.296;2023-05-10T10:34:01;5.10;;;3.80;;
21868;SDS011;11099;41.564;23.296;2023-05-10T10:36:32;4.68;;;4.38;;
21868;SDS011;11099;41.564;23.296;2023-05-10T10:39:08;3.42;;;3.22;;
21868;SDS011;11099;41.564;23.296;2023-05-10T10:41:56;3.63;;;3.33;;
21868;SDS011;11099;41.564;23.296;2023-05-10T10:49:31;12.63;;;10.25;;
21868;SDS011;11099;41.564;23.296;2023-05-10T10:57:43;9.15;;;8.23;;
21868;SDS011;11099;41.564;23.296;2023-05-10T11:00:27;7.45;;;6.75;;
21868;SDS011;11099;41.564;23.296;2023-05-10T11:08:07;3.80;;;3.50;;
21868;SDS011;11099;41.564;23.296;2023-05-10T11:10:33;3.75;;;3.50;;
21868;SDS011;11099;41.564;23.296;2023-05-10T11:13:01;6.63;;;6.03;;
21868;SDS011;11099;41.564;23.296;2023-05-10T11:15:39;5.75;;;5.25;;
21868;SDS011;11099;41.564;23.296;2023-05-10T11:18:20;3.80;;;3.30;;
21868;SDS011;11099;41.564;23.296;2023-05-10T11:20:59;3.50;;;3.20;;
21868;SDS011;11099;41.564;23.296;2023-05-10T11:26:07;4.60;;;4.30;;
21868;SDS011;11099;41.564;23.296;2023-05-10T11:28:43;4.03;;;3.72;;
21868;SDS011;11099;41.564;23.296;2023-05-10T11:31:09;5.35;;;4.88;;
21868;SDS011;11099;41.564;23.296;2023-05-10T11:33:52;6.78;;;6.13;;
21868;SDS011;11099;41.564;23.296;2023-05-10T11:36:26;21.17;;;16.88;;
21868;SDS011;11099;41.564;23.296;2023-05-10T11:38:54;12.02;;;10.73;;
21868;SDS011;11099;41.564;23.296;2023-05-10T11:41:22;5.05;;;4.65;;
21868;SDS011;11099;41.564;23.296;2023-05-10T11:43:49;9.20;;;8.18;;
21868;SDS011;11099;41.564;23.296;2023-05-10T11:46:17;5.78;;;4.22;;
21868;SDS011;11099;41.564;23.296;2023-05-10T11:48:45;5.85;;;5.30;;
21868;SDS011;11099;41.564;23.296;2023-05-10T11:51:12;13.48;;;12.18;;
21868;SDS011;11099;41.564;23.296;2023-05-10T11:53:38;12.10;;;11.00;;
21868;SDS011;11099;41.564;23.296;2023-05-10T11:56:06;5.43;;;4.72;;
21868;SDS011;11099;41.564;23.296;2023-05-10T11:58:34;10.50;;;7.75;;
21868;SDS011;11099;41.564;23.296;2023-05-10T12:01:00;6.75;;;4.85;;
21868;SDS011;11099;41.564;23.296;2023-05-10T12:03:27;8.07;;;7.13;;
21868;SDS011;11099;41.564;23.296;2023-05-10T12:05:53;8.10;;;7.35;;
21868;SDS011;11099;41.564;23.296;2023-05-10T12:08:20;6.28;;;5.68;;
21868;SDS011;11099;41.564;23.296;2023-05-10T12:10:48;6.68;;;5.97;;
21868;SDS011;11099;41.564;23.296;2023-05-10T12:13:14;7.80;;;6.55;;
21868;SDS011;11099;41.564;23.296;2023-05-10T12:15:41;7.20;;;6.32;;
21868;SDS011;11099;41.564;23.296;2023-05-10T12:18:10;6.88;;;4.88;;
21868;SDS011;11099;41.564;23.296;2023-05-10T12:20:37;5.40;;;4.90;;
21868;SDS011;11099;41.564;23.296;2023-05-10T12:23:03;5.63;;;5.13;;
21868;SDS011;11099;41.564;23.296;2023-05-10T12:25:31;5.85;;;5.35;;
21868;SDS011;11099;41.564;23.296;2023-05-10T12:28:02;5.38;;;4.88;;
21868;SDS011;11099;41.564;23.296;2023-05-10T12:30:31;5.30;;;4.70;;
21868;SDS011;11099;41.564;23.296;2023-05-10T12:33:02;4.95;;;4.53;;
21868;SDS011;11099;41.564;23.296;2023-05-10T12:35:48;5.60;;;5.10;;
21868;SDS011;11099;41.564;23.296;2023-05-10T12:41:13;6.03;;;5.53;;
21868;SDS011;11099;41.564;23.296;2023-05-10T12:43:39;6.32;;;5.10;;
21868;SDS011;11099;41.564;23.296;2023-05-10T12:48:32;14.57;;;12.82;;
21868;SDS011;11099;41.564;23.296;2023-05-10T12:50:59;5.75;;;4.97;;
21868;SDS011;11099;41.564;23.296;2023-05-10T12:53:25;11.05;;;7.78;;
21868;SDS011;11099;41.564;23.296;2023-05-10T12:55:50;5.38;;;4.88;;
21868;SDS011;11099;41.564;23.296;2023-05-10T12:58:16;4.38;;;3.92;;
21868;SDS011;11099;41.564;23.296;2023-05-10T13:00:42;6.72;;;4.75;;
21868;SDS011;11099;41.564;23.296;2023-05-10T13:03:08;5.20;;;4.80;;
21868;SDS011;11099;41.564;23.296;2023-05-10T13:05:34;4.30;;;4.00;;
21868;SDS011;11099;41.564;23.296;2023-05-10T13:08:00;4.78;;;4.38;;
21868;SDS011;11099;41.564;23.296;2023-05-10T13:10:26;6.88;;;4.10;;
21868;SDS011;11099;41.564;23.296;2023-05-10T13:12:51;5.13;;;4.25;;
21868;SDS011;11099;41.564;23.296;2023-05-10T13:15:17;6.18;;;4.03;;
21868;SDS011;11099;41.564;23.296;2023-05-10T13:17:42;4.20;;;3.80;;
21868;SDS011;11099;41.564;23.296;2023-05-10T13:20:08;5.60;;;5.10;;
21868;SDS011;11099;41.564;23.296;2023-05-10T13:22:34;5.55;;;4.35;;
21868;SDS011;11099;41.564;23.296;2023-05-10T13:25:01;4.22;;;3.92;;
21868;SDS011;11099;41.564;23.296;2023-05-10T13:27:27;5.55;;;5.05;;
21868;SDS011;11099;41.564;23.296;2023-05-10T13:29:53;4.70;;;4.22;;
21868;SDS011;11099;41.564;23.296;2023-05-10T13:32:19;4.55;;;4.00;;
21868;SDS011;11099;41.564;23.296;2023-05-10T13:34:45;4.05;;;3.75;;
21868;SDS011;11099;41.564;23.296;2023-05-10T13:37:11;3.78;;;3.47;;
21868;SDS011;11099;41.564;23.296;2023-05-10T13:39:36;4.13;;;3.83;;
21868;SDS011;11099;41.564;23.296;2023-05-10T13:42:02;5.75;;;4.10;;
21868;SDS011;11099;41.564;23.296;2023-05-10T13:44:28;3.95;;;3.65;;
21868;SDS011;11099;41.564;23.296;2023-05-10T13:46:55;4.68;;;4.00;;
21868;SDS011;11099;41.564;23.296;2023-05-10T13:49:21;4.82;;;4.28;;
21868;SDS011;11099;41.564;23.296;2023-05-10T13:51:47;5.15;;;4.53;;
21868;SDS011;11099;41.564;23.296;2023-05-10T13:54:13;4.80;;;3.92;;
21868;SDS011;11099;41.564;23.296;2023-05-10T13:56:38;4.63;;;4.05;;
21868;SDS011;11099;41.564;23.296;2023-05-10T13:59:05;4.10;;;3.55;;
21868;SDS011;11099;41.564;23.296;2023-05-10T14:01:31;4.72;;;4.32;;
21868;SDS011;11099;41.564;23.296;2023-05-10T14:03:56;5.53;;;3.55;;
21868;SDS011;11099;41.564;23.296;2023-05-10T14:06:22;5.30;;;4.40;;
21868;SDS011;11099;41.564;23.296;2023-05-10T14:08:47;3.78;;;3.47;;
21868;SDS011;11099;41.564;23.296;2023-05-10T14:11:13;5.50;;;3.22;;
21868;SDS011;11099;41.564;23.296;2023-05-10T14:13:39;3.47;;;3.28;;
21868;SDS011;11099;41.564;23.296;2023-05-10T14:16:04;7.40;;;5.60;;
21868;SDS011;11099;41.564;23.296;2023-05-10T14:18:30;4.05;;;3.72;;
21868;SDS011;11099;41.564;23.296;2023-05-10T14:20:56;9.57;;;4.97;;
21868;SDS011;11099;41.564;23.296;2023-05-10T14:23:22;4.25;;;3.80;;
21868;SDS011;11099;41.564;23.296;2023-05-10T14:25:51;3.80;;;3.50;;
21868;SDS011;11099;41.564;23.296;2023-05-10T14:28:17;6.47;;;5.72;;
21868;SDS011;11099;41.564;23.296;2023-05-10T14:30:43;5.53;;;4.80;;
21868;SDS011;11099;41.564;23.296;2023-05-10T14:33:09;6.72;;;3.90;;
21868;SDS011;11099;41.564;23.296;2023-05-10T14:35:35;5.72;;;5.22;;
21868;SDS011;11099;41.564;23.296;2023-05-10T14:38:01;6.93;;;5.80;;
21868;SDS011;11099;41.564;23.296;2023-05-10T14:40:28;8.68;;;7.05;;
21868;SDS011;11099;41.564;23.296;2023-05-10T14:42:54;5.82;;;5.32;;
21868;SDS011;11099;41.564;23.296;2023-05-10T14:45:20;7.53;;;4.93;;
21868;SDS011;11099;41.564;23.296;2023-05-10T14:47:46;4.28;;;3.97;;
21868;SDS011;11099;41.564;23.296;2023-05-10T14:50:11;4.90;;;4.28;;
21868;SDS011;11099;41.564;23.296;2023-05-10T14:55:58;6.60;;;5.78;;
21868;SDS011;11099;41.564;23.296;2023-05-10T14:58:26;7.43;;;4.43;;
21868;SDS011;11099;41.564;23.296;2023-05-10T15:00:52;5.70;;;5.20;;
21868;SDS011;11099;41.564;23.296;2023-05-10T15:03:18;6.60;;;6.00;;
21868;SDS011;11099;41.564;23.296;2023-05-10T15:05:44;6.68;;;5.97;;
21868;SDS011;11099;41.564;23.296;2023-05-10T15:08:13;7.40;;;4.55;;
21868;SDS011;11099;41.564;23.296;2023-05-10T15:10:40;4.80;;;4.40;;
21868;SDS011;11099;41.564;23.296;2023-05-10T15:13:07;6.60;;;4.50;;
21868;SDS011;11099;41.564;23.296;2023-05-10T15:15:34;7.05;;;5.40;;
21868;SDS011;11099;41.564;23.296;2023-05-10T15:17:59;9.55;;;7.35;;
21868;SDS011;11099;41.564;23.296;2023-05-10T15:20:25;9.10;;;6.82;;
21868;SDS011;11099;41.564;23.296;2023-05-10T15:22:52;7.82;;;6.97;;
21868;SDS011;11099;41.564;23.296;2023-05-10T15:25:18;9.48;;;6.70;;
21868;SDS011;11099;41.564;23.296;2023-05-10T15:27:44;11.93;;;8.75;;
21868;SDS011;11099;41.564;23.296;2023-05-10T15:30:10;6.13;;;5.63;;
21868;SDS011;11099;41.564;23.296;2023-05-10T15:32:36;16.13;;;10.85;;
21868;SDS011;11099;41.564;23.296;2023-05-10T15:35:02;16.65;;;11.35;;